Time;durP1;ratioP1;P1;durP2;ratioP2;P2;SDS_P1;SDS_P2;PMS_P1;PMS_P2;Temp;Humidity;BMP_temperature;BMP_pressure;BME280_temperature;BME280_humidity;BME280_pressure;Samples;Min_cycle;Max_cycle;Signal;HPM_P1;HPM_P2
2023/12/11 00:02:04;;;;;;;;;;;9.00;89.00;;;;;;5054762;28;19987;-64
2023/12/11 00:04:37;;;;;;;;;;;9.00;88.90;;;;;;5058811;28;19958;-64
2023/12/11 00:07:10;;;;;;;;;;;9.00;89.10;;;;;;5057389;28;20003;-64
2023/12/11 00:09:43;;;;;;;;;;;8.90;89.00;;;;;;5055850;28;20002;-64
2023/12/11 00:12:10;;;;;;;;;;;9.00;89.10;;;;;;5055871;28;19952;-64
2023/12/11 00:14:44;;;;;;;;;;;9.00;89.20;;;;;;5053344;28;20390;-63
2023/12/11 00:17:18;;;;;;;;;;;9.00;89.10;;;;;;5059995;28;20012;-64
2023/12/11 00:19:51;;;;;;;;;;;9.00;89.30;;;;;;5060940;28;20337;-65
2023/12/11 00:22:24;;;;;;;;;;;9.00;89.30;;;;;;5060071;28;19933;-64
2023/12/11 00:24:58;;;;;;;;;;;9.10;89.30;;;;;;5061447;28;19932;-64
2023/12/11 00:27:31;;;;;;;;;;;9.10;89.10;;;;;;5057685;28;19931;-64
2023/12/11 00:30:06;;;;;;;;;;;9.20;89.30;;;;;;5059586;28;19929;-63
2023/12/11 00:32:40;;;;;;;;;;;9.20;89.10;;;;;;5060362;28;19925;-64
2023/12/11 00:35:13;;;;;;;;;;;9.20;89.10;;;;;;5058920;28;19981;-64
2023/12/11 00:37:46;;;;;;;;;;;9.20;89.10;;;;;;5060441;28;19924;-62
2023/12/11 00:40:22;;;;;;;;;;;9.20;89.20;;;;;;5060436;28;20371;-63
2023/12/11 00:42:55;;;;;;;;;;;9.10;89.30;;;;;;5057305;28;20019;-63
2023/12/11 00:45:29;;;;;;;;;;;9.10;89.20;;;;;;5059520;28;19964;-65
2023/12/11 00:48:03;;;;;;;;;;;9.20;89.30;;;;;;5059041;28;20023;-64
2023/12/11 00:50:39;;;;;;;;;;;9.20;89.30;;;;;;5061314;28;19929;-61
2023/12/11 00:53:12;;;;;;;;;;;9.20;89.40;;;;;;5058832;28;19928;-61
2023/12/11 00:55:45;;;;;;;;;;;9.20;89.30;;;;;;5044202;28;20362;-62
2023/12/11 00:58:18;;;;;;;;;;;9.20;89.30;;;;;;5058599;28;20445;-62
2023/12/11 01:00:52;;;;;;;;;;;9.20;89.30;;;;;;5061296;28;19929;-62
2023/12/11 01:03:26;;;;;;;;;;;9.20;89.20;;;;;;5058854;28;19929;-63
2023/12/11 01:05:59;;;;;;;;;;;9.20;89.30;;;;;;5059953;28;20364;-62
2023/12/11 01:08:33;;;;;;;;;;;9.10;89.30;;;;;;5060652;28;19929;-61
2023/12/11 01:11:07;;;;;;;;;;;9.20;89.30;;;;;;5059561;28;20470;-61
2023/12/11 01:13:40;;;;;;;;;;;9.20;89.30;;;;;;5059754;28;19931;-61
2023/12/11 01:16:14;;;;;;;;;;;9.20;89.10;;;;;;5062506;28;19925;-62
2023/12/11 01:18:48;;;;;;;;;;;9.20;89.30;;;;;;5059848;28;19928;-62
2023/12/11 01:21:21;;;;;;;;;;;9.20;89.30;;;;;;5059739;28;20409;-63
2023/12/11 01:23:54;;;;;;;;;;;9.20;89.40;;;;;;5061631;28;20451;-62
2023/12/11 01:26:27;;;;;;;;;;;9.20;89.40;;;;;;5058433;28;20476;-61
2023/12/11 01:29:00;;;;;;;;;;;9.20;89.40;;;;;;5060856;28;20035;-62
2023/12/11 01:31:34;;;;;;;;;;;9.20;89.50;;;;;;5059516;28;19928;-62
2023/12/11 01:34:11;;;;;;;;;;;9.20;89.40;;;;;;5059878;28;20337;-62
2023/12/11 01:36:44;;;;;;;;;;;9.20;89.30;;;;;;5057887;28;20014;-61
2023/12/11 01:39:17;;;;;;;;;;;9.20;89.50;;;;;;5062311;28;20009;-62
2023/12/11 01:41:44;;;;;;;;;;;9.20;89.50;;;;;;5057595;28;19933;-63
2023/12/11 01:44:17;;;;;;;;;;;9.20;89.50;;;;;;5060164;28;19970;-63
2023/12/11 01:46:51;;;;;;;;;;;9.20;89.50;;;;;;5060502;28;19928;-62
2023/12/11 01:49:25;;;;;;;;;;;9.20;89.60;;;;;;5059406;28;20013;-63
2023/12/11 01:51:58;;;;;;;;;;;9.20;89.50;;;;;;5058720;28;20010;-62
2023/12/11 01:54:32;;;;;;;;;;;9.20;89.70;;;;;;5059111;28;19931;-62
2023/12/11 01:57:05;;;;;;;;;;;9.20;89.50;;;;;;5061448;28;20013;-62
2023/12/11 01:59:39;;;;;;;;;;;9.30;89.70;;;;;;5058263;28;20007;-72
2023/12/11 02:02:14;;;;;;;;;;;9.30;89.60;;;;;;5058612;28;19928;-72
2023/12/11 02:04:49;;;;;;;;;;;9.30;89.50;;;;;;5058778;28;20011;-72
2023/12/11 02:07:23;;;;;;;;;;;9.30;89.60;;;;;;5060731;28;20012;-72
2023/12/11 02:09:56;;;;;;;;;;;9.20;89.60;;;;;;5058068;28;19951;-72
2023/12/11 02:12:35;;;;;;;;;;;9.20;89.60;;;;;;5058025;28;19939;-73
2023/12/11 02:15:09;;;;;;;;;;;9.20;89.60;;;;;;5058769;28;19986;-73
2023/12/11 02:17:44;;;;;;;;;;;9.20;89.80;;;;;;5060986;28;20027;-72
2023/12/11 02:20:18;;;;;;;;;;;9.20;89.80;;;;;;5057955;28;20002;-72
2023/12/11 02:22:51;;;;;;;;;;;9.20;89.70;;;;;;5058746;28;20127;-72
2023/12/11 02:25:26;;;;;;;;;;;9.20;89.80;;;;;;5058232;28;19970;-71
2023/12/11 02:28:01;;;;;;;;;;;9.20;89.70;;;;;;5060748;28;20371;-72
2023/12/11 02:30:35;;;;;;;;;;;9.20;89.70;;;;;;5058465;28;19992;-72
2023/12/11 02:33:08;;;;;;;;;;;9.30;89.70;;;;;;5060880;28;19943;-73
2023/12/11 02:35:41;;;;;;;;;;;9.20;89.60;;;;;;5056730;28;21891;-72
2023/12/11 02:38:14;;;;;;;;;;;9.20;89.60;;;;;;5058429;28;19932;-72
2023/12/11 02:40:47;;;;;;;;;;;9.20;89.60;;;;;;5059253;28;19928;-72
2023/12/11 02:43:21;;;;;;;;;;;9.30;89.60;;;;;;5059753;28;20455;-74
2023/12/11 02:46:02;;;;;;;;;;;9.30;89.50;;;;;;5055774;28;19928;-72
2023/12/11 02:48:35;;;;;;;;;;;9.30;89.50;;;;;;5059434;28;19925;-73
2023/12/11 02:51:08;;;;;;;;;;;9.30;89.50;;;;;;5053766;28;19931;-72
2023/12/11 02:53:41;;;;;;;;;;;9.40;89.40;;;;;;5059710;28;19932;-72
2023/12/11 02:56:14;;;;;;;;;;;9.40;89.40;;;;;;5059040;28;19925;-73
2023/12/11 02:58:48;;;;;;;;;;;9.40;89.50;;;;;;5058697;28;19932;-72
2023/12/11 03:01:22;;;;;;;;;;;9.30;89.50;;;;;;5058753;28;19932;-72
2023/12/11 03:03:55;;;;;;;;;;;9.40;89.60;;;;;;5058803;28;19939;-72
2023/12/11 03:06:28;;;;;;;;;;;9.30;89.50;;;;;;5061053;28;19929;-72
2023/12/11 03:09:02;;;;;;;;;;;9.30;89.50;;;;;;5060462;28;19935;-64
2023/12/11 03:11:36;;;;;;;;;;;9.30;89.50;;;;;;5060807;28;19924;-64
2023/12/11 03:14:13;;;;;;;;;;;9.30;89.50;;;;;;5060809;28;20387;-63
2023/12/11 03:16:47;;;;;;;;;;;9.20;89.50;;;;;;5060023;28;19925;-64
2023/12/11 03:19:21;;;;;;;;;;;9.30;89.50;;;;;;5060518;28;19929;-63
2023/12/11 03:21:55;;;;;;;;;;;9.30;89.50;;;;;;5061184;28;19928;-64
2023/12/11 03:24:29;;;;;;;;;;;9.30;89.50;;;;;;5060701;28;19928;-63
2023/12/11 03:27:02;;;;;;;;;;;9.30;89.50;;;;;;5060262;28;20011;-64
2023/12/11 03:29:30;;;;;;;;;;;9.30;89.50;;;;;;5058994;28;20291;-63
2023/12/11 03:32:03;;;;;;;;;;;9.20;89.50;;;;;;5059805;28;19929;-63
2023/12/11 03:34:39;;;;;;;;;;;9.20;89.40;;;;;;5059967;28;20394;-63
2023/12/11 03:37:12;;;;;;;;;;;9.20;89.50;;;;;;5059877;28;20279;-63
2023/12/11 03:39:48;;;;;;;;;;;9.20;89.50;;;;;;5052968;28;19928;-64
2023/12/11 03:42:21;;;;;;;;;;;9.20;89.50;;;;;;5059540;28;20409;-62
2023/12/11 03:44:57;;;;;;;;;;;9.20;89.40;;;;;;5056629;28;20321;-64
2023/12/11 03:47:30;;;;;;;;;;;9.20;89.40;;;;;;5058981;28;19931;-63
2023/12/11 03:50:03;;;;;;;;;;;9.20;89.40;;;;;;5059412;28;19932;-66
2023/12/11 03:52:36;;;;;;;;;;;9.20;89.40;;;;;;5055516;28;19925;-64
2023/12/11 03:55:09;;;;;;;;;;;9.20;89.30;;;;;;5062034;28;20458;-64
2023/12/11 03:57:35;;;;;;;;;;;9.20;89.40;;;;;;5064652;28;20386;-64
2023/12/11 04:00:10;;;;;;;;;;;9.10;89.50;;;;;;5057338;28;19936;-65
2023/12/11 04:13:27;;;;;;;;;;;9.20;89.50;;;;;;5048376;28;20031;-62
2023/12/11 04:16:03;;;;;;;;;;;9.10;89.40;;;;;;5056814;28;19929;-64
2023/12/11 04:18:36;;;;;;;;;;;9.10;89.30;;;;;;5061884;28;19964;-63
2023/12/11 04:21:13;;;;;;;;;;;9.10;89.30;;;;;;5062842;28;20260;-63
2023/12/11 04:23:46;;;;;;;;;;;9.20;89.30;;;;;;5062299;28;20038;-64
2023/12/11 04:26:22;;;;;;;;;;;9.20;89.30;;;;;;5063121;28;19925;-64
2023/12/11 04:28:55;;;;;;;;;;;9.20;89.20;;;;;;5061275;28;19924;-62
2023/12/11 04:31:23;;;;;;;;;;;9.10;89.20;;;;;;5061467;28;19933;-64
2023/12/11 04:33:59;;;;;;;;;;;9.20;89.10;;;;;;5061792;28;19928;-63
2023/12/11 04:36:32;;;;;;;;;;;9.20;88.90;;;;;;5062760;28;20391;-63
2023/12/11 04:38:59;;;;;;;;;;;9.20;88.80;;;;;;5062438;28;19928;-63
2023/12/11 04:41:32;;;;;;;;;;;9.20;88.80;;;;;;5061960;28;19929;-63
2023/12/11 04:44:05;;;;;;;;;;;9.20;88.60;;;;;;5060251;28;20460;-63
2023/12/11 04:46:39;;;;;;;;;;;9.20;88.60;;;;;;5059494;28;19933;-62
2023/12/11 04:49:13;;;;;;;;;;;9.20;88.50;;;;;;5060878;28;20023;-63
2023/12/11 04:51:46;;;;;;;;;;;9.20;88.30;;;;;;5061706;28;19928;-63
2023/12/11 04:54:19;;;;;;;;;;;9.20;88.20;;;;;;5064175;28;19924;-63
2023/12/11 04:56:53;;;;;;;;;;;9.30;88.20;;;;;;5054496;28;19932;-63
2023/12/11 04:59:26;;;;;;;;;;;9.30;88.10;;;;;;5062583;28;19928;-63
2023/12/11 05:02:00;;;;;;;;;;;9.30;88.10;;;;;;5062781;28;19928;-63
2023/12/11 05:04:34;;;;;;;;;;;9.30;88.10;;;;;;5061227;28;19932;-63
2023/12/11 05:07:07;;;;;;;;;;;9.30;88.10;;;;;;5062222;28;19930;-63
2023/12/11 05:09:40;;;;;;;;;;;9.30;88.10;;;;;;5059293;28;19931;-63
2023/12/11 05:12:13;;;;;;;;;;;9.30;88.10;;;;;;5062261;28;20364;-62
2023/12/11 05:14:46;;;;;;;;;;;9.30;88.10;;;;;;5062426;28;21172;-63
2023/12/11 05:17:20;;;;;;;;;;;9.30;88.20;;;;;;5060749;28;19929;-63
2023/12/11 05:19:54;;;;;;;;;;;9.30;88.20;;;;;;5060189;28;20376;-62
2023/12/11 05:22:27;;;;;;;;;;;9.30;88.20;;;;;;5060180;28;19955;-64
2023/12/11 05:25:00;;;;;;;;;;;9.30;88.10;;;;;;5061734;28;19963;-62
2023/12/11 05:27:33;;;;;;;;;;;9.30;88.00;;;;;;5061276;28;19929;-63
2023/12/11 05:30:07;;;;;;;;;;;9.30;88.00;;;;;;5062314;28;19935;-62
2023/12/11 05:32:42;;;;;;;;;;;9.30;87.80;;;;;;5061245;28;19925;-62
2023/12/11 05:35:15;;;;;;;;;;;9.40;87.50;;;;;;5060707;28;19931;-62
2023/12/11 05:37:48;;;;;;;;;;;9.40;87.30;;;;;;5056989;28;19935;-63
2023/12/11 05:40:21;;;;;;;;;;;9.40;87.30;;;;;;5061389;28;20032;-64
2023/12/11 05:42:54;;;;;;;;;;;9.40;87.10;;;;;;5060927;28;19935;-64
2023/12/11 05:45:27;;;;;;;;;;;9.40;87.00;;;;;;5060930;28;19929;-64
2023/12/11 05:48:01;;;;;;;;;;;9.40;87.00;;;;;;5061108;28;20008;-64
2023/12/11 05:50:35;;;;;;;;;;;9.50;86.90;;;;;;5059740;28;20023;-64
2023/12/11 05:53:08;;;;;;;;;;;9.50;86.80;;;;;;5060743;28;19986;-63
2023/12/11 05:55:41;;;;;;;;;;;9.50;86.80;;;;;;5060034;28;19932;-64
2023/12/11 05:58:14;;;;;;;;;;;9.50;86.80;;;;;;5060125;28;20423;-63
2023/12/11 06:00:41;;;;;;;;;;;9.50;86.80;;;;;;5059915;28;19932;-64
2023/12/11 06:03:15;;;;;;;;;;;9.40;86.90;;;;;;5060336;28;19928;-63
2023/12/11 06:05:51;;;;;;;;;;;9.40;87.00;;;;;;5058193;28;19968;-63
2023/12/11 06:08:24;;;;;;;;;;;9.40;87.00;;;;;;5061357;28;20359;-63
2023/12/11 06:10:58;;;;;;;;;;;9.40;87.00;;;;;;5060526;28;19928;-64
2023/12/11 06:13:31;;;;;;;;;;;9.40;87.10;;;;;;5061176;28;20457;-64
2023/12/11 06:16:04;;;;;;;;;;;9.40;87.10;;;;;;5061127;28;20307;-64
2023/12/11 06:18:41;;;;;;;;;;;9.40;87.20;;;;;;5061007;28;19960;-63
2023/12/11 06:21:20;;;;;;;;;;;9.40;87.20;;;;;;5061677;28;19931;-64
2023/12/11 06:23:53;;;;;;;;;;;9.40;87.30;;;;;;5058519;28;19928;-63
2023/12/11 06:26:28;;;;;;;;;;;9.40;87.30;;;;;;5054283;28;19929;-63
2023/12/11 06:29:01;;;;;;;;;;;9.40;87.30;;;;;;5058336;28;19934;-63
2023/12/11 06:31:34;;;;;;;;;;;9.40;87.40;;;;;;5053379;28;20264;-64
2023/12/11 06:34:08;;;;;;;;;;;9.30;87.40;;;;;;5061831;28;19925;-63
2023/12/11 06:36:42;;;;;;;;;;;9.30;87.50;;;;;;5060829;28;19928;-64
2023/12/11 06:39:15;;;;;;;;;;;9.30;87.50;;;;;;5059719;28;19939;-63
2023/12/11 06:41:49;;;;;;;;;;;9.30;87.60;;;;;;5059854;28;19931;-62
2023/12/11 06:44:22;;;;;;;;;;;9.30;87.60;;;;;;5059978;28;19935;-64
2023/12/11 06:46:55;;;;;;;;;;;9.20;87.70;;;;;;5059751;28;20029;-63
2023/12/11 06:49:29;;;;;;;;;;;9.30;87.70;;;;;;5058555;28;19924;-63
2023/12/11 06:52:03;;;;;;;;;;;9.30;87.70;;;;;;5058567;28;20501;-62
2023/12/11 06:54:36;;;;;;;;;;;9.20;87.80;;;;;;5060402;28;19981;-60
2023/12/11 06:57:09;;;;;;;;;;;9.30;87.80;;;;;;5059791;28;19933;-62
2023/12/11 06:59:49;;;;;;;;;;;9.20;87.80;;;;;;5059060;28;19935;-61
2023/12/11 07:02:22;;;;;;;;;;;9.20;87.90;;;;;;5057331;28;19929;-62
2023/12/11 07:04:57;;;;;;;;;;;9.30;87.90;;;;;;5058828;28;20379;-61
2023/12/11 07:07:30;;;;;;;;;;;9.30;88.00;;;;;;5058966;28;20017;-61
2023/12/11 07:10:04;;;;;;;;;;;9.30;88.00;;;;;;5058450;28;19938;-62
2023/12/11 07:12:40;;;;;;;;;;;9.30;88.10;;;;;;5058761;28;19954;-62
2023/12/11 07:15:13;;;;;;;;;;;9.30;88.10;;;;;;5059822;28;19928;-62
2023/12/11 07:17:46;;;;;;;;;;;9.30;88.10;;;;;;5060958;28;19928;-61
2023/12/11 07:20:20;;;;;;;;;;;9.30;88.10;;;;;;5059734;28;19932;-61
2023/12/11 07:22:54;;;;;;;;;;;9.30;88.20;;;;;;5058940;28;20290;-62
2023/12/11 07:25:28;;;;;;;;;;;9.30;88.20;;;;;;5059384;28;20378;-62
2023/12/11 07:28:25;;;;;;;;;;;9.30;88.30;;;;;;5036249;28;19928;-62
2023/12/11 07:30:58;;;;;;;;;;;9.30;88.30;;;;;;5063991;28;19928;-61
2023/12/11 07:33:32;;;;;;;;;;;9.30;88.40;;;;;;5065281;28;19931;-62
2023/12/11 07:36:07;;;;;;;;;;;9.30;88.30;;;;;;5064137;28;20012;-62
2023/12/11 07:38:40;;;;;;;;;;;9.30;88.40;;;;;;5059759;28;19933;-62
2023/12/11 07:41:18;;;;;;;;;;;9.40;88.30;;;;;;5063267;28;19928;-62
2023/12/11 07:43:52;;;;;;;;;;;9.50;88.20;;;;;;5063837;28;19941;-62
2023/12/11 07:46:25;;;;;;;;;;;9.50;88.20;;;;;;5062646;28;19929;-63
2023/12/11 07:48:58;;;;;;;;;;;9.50;88.10;;;;;;5063957;28;19967;-61
2023/12/11 07:51:32;;;;;;;;;;;9.60;88.10;;;;;;5063913;28;19932;-61
2023/12/11 07:54:06;;;;;;;;;;;9.60;88.10;;;;;;5063716;28;19985;-62
2023/12/11 07:56:40;;;;;;;;;;;9.60;88.00;;;;;;5063283;28;19986;-62
2023/12/11 07:59:13;;;;;;;;;;;9.70;88.00;;;;;;5045023;28;19928;-63
2023/12/11 08:01:47;;;;;;;;;;;9.70;88.00;;;;;;5063992;28;19932;-63
2023/12/11 08:04:21;;;;;;;;;;;9.70;87.80;;;;;;5063422;28;19951;-67
2023/12/11 08:06:58;;;;;;;;;;;9.80;87.70;;;;;;5061745;28;19931;-63
2023/12/11 08:09:36;;;;;;;;;;;9.70;87.60;;;;;;5061070;28;19933;-64
2023/12/11 08:12:09;;;;;;;;;;;9.80;87.50;;;;;;5063002;28;19937;-63
2023/12/11 08:14:42;;;;;;;;;;;9.80;87.40;;;;;;5062029;28;19924;-64
2023/12/11 08:17:15;;;;;;;;;;;9.80;87.30;;;;;;5062117;28;19924;-63
2023/12/11 08:19:48;;;;;;;;;;;9.80;87.00;;;;;;5062341;28;19924;-62
2023/12/11 08:22:22;;;;;;;;;;;9.90;86.60;;;;;;5061256;28;20002;-67
2023/12/11 08:24:56;;;;;;;;;;;9.90;86.20;;;;;;5062297;28;20015;-63
2023/12/11 08:27:29;;;;;;;;;;;10.00;86.10;;;;;;5062661;28;19925;-63
2023/12/11 08:30:02;;;;;;;;;;;10.00;86.00;;;;;;5063482;28;19928;-63
2023/12/11 08:32:37;;;;;;;;;;;10.00;86.00;;;;;;5064888;28;19924;-64
2023/12/11 08:35:10;;;;;;;;;;;10.10;85.80;;;;;;5062870;28;19928;-63
2023/12/11 08:37:44;;;;;;;;;;;10.10;85.70;;;;;;5058695;28;19936;-63
2023/12/11 08:40:20;;;;;;;;;;;10.10;85.80;;;;;;5062984;28;20007;-64
2023/12/11 08:42:54;;;;;;;;;;;10.10;85.70;;;;;;5063338;28;20326;-63
2023/12/11 08:45:27;;;;;;;;;;;10.20;85.70;;;;;;5062586;28;20003;-64
2023/12/11 08:48:00;;;;;;;;;;;10.20;85.70;;;;;;5063412;28;20006;-63
2023/12/11 08:50:33;;;;;;;;;;;10.20;85.60;;;;;;5062550;28;19928;-63
2023/12/11 08:53:07;;;;;;;;;;;10.20;85.50;;;;;;5060757;28;19925;-63
2023/12/11 08:55:41;;;;;;;;;;;10.20;85.40;;;;;;5058651;28;20469;-65
2023/12/11 08:58:14;;;;;;;;;;;10.20;85.30;;;;;;5062910;28;19929;-63
2023/12/11 09:00:50;;;;;;;;;;;10.30;85.20;;;;;;5062408;28;19943;-64
2023/12/11 09:03:23;;;;;;;;;;;10.30;85.20;;;;;;5043805;28;20375;-62
2023/12/11 09:05:56;;;;;;;;;;;10.20;85.10;;;;;;5061987;28;19951;-64
2023/12/11 09:08:30;;;;;;;;;;;10.30;85.10;;;;;;5062249;28;20337;-69
2023/12/11 09:11:04;;;;;;;;;;;10.30;85.00;;;;;;5062037;28;19978;-61
2023/12/11 09:13:37;;;;;;;;;;;10.20;85.00;;;;;;5062228;28;20023;-61
2023/12/11 09:16:10;;;;;;;;;;;10.30;84.90;;;;;;5061399;28;20398;-61
2023/12/11 09:18:43;;;;;;;;;;;10.30;84.70;;;;;;5060403;28;20011;-63
2023/12/11 09:21:17;;;;;;;;;;;10.40;84.60;;;;;;5062560;28;19931;-62
2023/12/11 09:23:51;;;;;;;;;;;10.40;84.40;;;;;;5059670;28;19935;-62
2023/12/11 09:26:25;;;;;;;;;;;10.40;84.40;;;;;;5060163;28;20298;-61
2023/12/11 09:28:58;;;;;;;;;;;10.40;84.30;;;;;;5061985;28;20295;-62
2023/12/11 09:31:31;;;;;;;;;;;10.40;84.20;;;;;;5060911;28;19929;-62
2023/12/11 09:34:04;;;;;;;;;;;10.40;84.00;;;;;;5061646;28;19925;-61
2023/12/11 09:36:37;;;;;;;;;;;10.50;83.80;;;;;;5044886;28;20023;-62
2023/12/11 09:39:12;;;;;;;;;;;10.50;83.80;;;;;;5059571;28;19970;-61
2023/12/11 09:41:46;;;;;;;;;;;10.60;83.70;;;;;;5062456;28;19932;-61
2023/12/11 09:44:23;;;;;;;;;;;10.60;83.40;;;;;;5055188;28;19928;-61
2023/12/11 09:46:59;;;;;;;;;;;10.60;83.40;;;;;;5060934;28;19931;-62
2023/12/11 09:49:32;;;;;;;;;;;10.70;83.00;;;;;;5061840;28;20268;-61
2023/12/11 09:52:06;;;;;;;;;;;10.70;82.90;;;;;;5058662;28;20267;-62
2023/12/11 09:54:48;;;;;;;;;;;10.80;82.60;;;;;;5058440;28;20405;-62
2023/12/11 09:57:22;;;;;;;;;;;10.90;82.40;;;;;;5061266;28;20146;-62
2023/12/11 09:59:55;;;;;;;;;;;10.80;82.20;;;;;;5058110;28;19935;-62
2023/12/11 10:02:31;;;;;;;;;;;10.90;82.30;;;;;;5059127;28;20007;-63
2023/12/11 10:05:08;;;;;;;;;;;10.80;82.20;;;;;;5060938;28;19937;-62
2023/12/11 10:07:42;;;;;;;;;;;10.80;82.20;;;;;;5059669;28;19932;-62
2023/12/11 10:10:25;;;;;;;;;;;10.80;82.10;;;;;;5062146;28;19932;-62
2023/12/11 10:12:58;;;;;;;;;;;10.80;82.20;;;;;;5059543;28;19929;-62
2023/12/11 10:15:33;;;;;;;;;;;10.70;82.60;;;;;;5059694;28;19943;-62
2023/12/11 10:18:11;;;;;;;;;;;10.70;83.00;;;;;;5062349;28;20298;-60
2023/12/11 10:20:53;;;;;;;;;;;10.60;83.40;;;;;;5058492;28;20379;-61
2023/12/11 10:23:26;;;;;;;;;;;10.60;83.70;;;;;;5059777;28;19935;-60
2023/12/11 10:26:06;;;;;;;;;;;10.60;83.70;;;;;;5060520;28;19929;-61
2023/12/11 10:28:40;;;;;;;;;;;10.60;83.60;;;;;;5056787;28;19925;-63
2023/12/11 10:31:13;;;;;;;;;;;10.60;83.40;;;;;;5060763;28;19925;-60
2023/12/11 10:33:47;;;;;;;;;;;10.60;83.40;;;;;;5061946;28;19925;-61
2023/12/11 10:36:22;;;;;;;;;;;10.60;83.40;;;;;;5061015;28;19935;-66
2023/12/11 10:39:07;;;;;;;;;;;10.60;83.00;;;;;;5058170;28;19986;-61
2023/12/11 10:41:46;;;;;;;;;;;10.70;82.90;;;;;;5058737;28;19960;-61
2023/12/11 10:44:21;;;;;;;;;;;10.70;82.60;;;;;;5060975;28;19925;-61
2023/12/11 10:46:55;;;;;;;;;;;10.70;82.50;;;;;;5060310;28;20371;-61
2023/12/11 10:49:28;;;;;;;;;;;10.80;82.40;;;;;;5059339;28;19971;-62
2023/12/11 10:52:05;;;;;;;;;;;10.80;82.20;;;;;;5056809;28;20437;-61
2023/12/11 10:54:41;;;;;;;;;;;10.80;82.10;;;;;;5059215;28;19933;-62
2023/12/11 10:57:16;;;;;;;;;;;10.90;81.80;;;;;;5059891;28;19929;-60
2023/12/11 10:59:51;;;;;;;;;;;10.90;81.80;;;;;;5044943;28;20286;-61
2023/12/11 11:02:25;;;;;;;;;;;10.90;81.40;;;;;;5060846;28;20342;-61
2023/12/11 11:04:59;;;;;;;;;;;11.00;81.30;;;;;;5058162;28;19995;-62
2023/12/11 11:07:35;;;;;;;;;;;11.00;81.20;;;;;;5059031;28;20011;-63
2023/12/11 11:10:12;;;;;;;;;;;11.10;81.00;;;;;;5059876;28;19924;-60
2023/12/11 11:12:51;;;;;;;;;;;11.10;80.90;;;;;;5059153;28;20363;-61
2023/12/11 11:15:39;;;;;;;;;;;11.10;80.90;;;;;;5057006;28;20385;-61
2023/12/11 11:18:19;;;;;;;;;;;11.00;80.70;;;;;;5060556;28;19958;-60
2023/12/11 11:21:08;;;;;;;;;;;11.10;80.60;;;;;;5056211;28;19928;-61
2023/12/11 11:23:48;;;;;;;;;;;11.10;80.30;;;;;;5057757;28;19932;-61
2023/12/11 11:26:30;;;;;;;;;;;11.10;80.10;;;;;;5059268;28;19933;-65
2023/12/11 11:29:05;;;;;;;;;;;11.10;80.20;;;;;;5059302;28;19998;-64
2023/12/11 11:31:48;;;;;;;;;;;11.10;80.00;;;;;;5057913;28;19932;-63
2023/12/11 11:34:40;;;;;;;;;;;11.10;79.90;;;;;;5059028;28;19963;-70
2023/12/11 11:37:15;;;;;;;;;;;11.10;80.00;;;;;;5057806;28;20049;-63
2023/12/11 11:40:05;;;;;;;;;;;11.20;79.70;;;;;;5059389;28;20342;-63
2023/12/11 11:42:38;;;;;;;;;;;11.20;79.70;;;;;;5059037;28;19994;-63
2023/12/11 11:45:12;;;;;;;;;;;11.30;79.70;;;;;;5060067;28;19946;-63
2023/12/11 11:47:45;;;;;;;;;;;11.30;79.60;;;;;;5058459;28;19929;-64
2023/12/11 11:50:19;;;;;;;;;;;11.30;79.70;;;;;;5059035;28;19928;-63
2023/12/11 11:52:55;;;;;;;;;;;11.30;80.00;;;;;;5057273;28;20008;-64
2023/12/11 11:55:28;;;;;;;;;;;11.30;80.20;;;;;;5059338;28;19925;-64
2023/12/11 11:58:10;;;;;;;;;;;11.40;80.20;;;;;;5057910;28;19940;-64
2023/12/11 12:00:45;;;;;;;;;;;11.40;80.00;;;;;;5057130;28;19925;-63
2023/12/11 12:03:18;;;;;;;;;;;11.50;79.90;;;;;;5059259;28;19943;-64
2023/12/11 12:05:55;;;;;;;;;;;11.50;79.70;;;;;;5059054;28;19929;-64
2023/12/11 12:08:28;;;;;;;;;;;11.50;79.60;;;;;;5059870;28;20505;-65
2023/12/11 12:11:01;;;;;;;;;;;11.50;79.40;;;;;;5058402;28;19985;-64
2023/12/11 12:13:36;;;;;;;;;;;11.50;79.50;;;;;;5058227;28;19933;-64
2023/12/11 12:16:11;;;;;;;;;;;11.50;79.50;;;;;;5063536;28;19932;-63
2023/12/11 12:18:50;;;;;;;;;;;11.50;79.40;;;;;;5062808;28;19985;-63
2023/12/11 12:21:23;;;;;;;;;;;11.50;79.40;;;;;;5061883;28;19929;-65
2023/12/11 12:24:03;;;;;;;;;;;11.50;79.70;;;;;;5063143;28;19974;-64
2023/12/11 12:26:36;;;;;;;;;;;11.50;79.70;;;;;;5063091;28;19943;-63
2023/12/11 12:29:03;;;;;;;;;;;11.50;79.80;;;;;;5060294;28;19971;-64
2023/12/11 12:31:38;;;;;;;;;;;11.50;79.80;;;;;;5063074;28;19943;-64
2023/12/11 12:34:12;;;;;;;;;;;11.40;79.80;;;;;;5063807;28;19924;-65
2023/12/11 12:36:46;;;;;;;;;;;11.40;80.00;;;;;;5061855;28;20394;-63
2023/12/11 12:39:20;;;;;;;;;;;11.40;80.00;;;;;;5062091;28;20347;-70
2023/12/11 12:41:53;;;;;;;;;;;11.40;80.10;;;;;;5062198;28;19924;-71
2023/12/11 12:44:26;;;;;;;;;;;11.40;80.00;;;;;;5063059;28;19931;-70
2023/12/11 12:47:02;;;;;;;;;;;11.40;79.90;;;;;;5063332;28;19963;-72
2023/12/11 12:49:38;;;;;;;;;;;11.40;79.80;;;;;;5062828;28;19997;-69
2023/12/11 12:52:11;;;;;;;;;;;11.40;79.80;;;;;;5063412;28;20011;-69
2023/12/11 12:54:48;;;;;;;;;;;11.40;79.50;;;;;;5062312;28;20291;-70
2023/12/11 12:57:21;;;;;;;;;;;11.40;79.30;;;;;;5061713;28;20024;-69
2023/12/11 12:59:54;;;;;;;;;;;11.40;79.30;;;;;;5059853;28;19935;-69
2023/12/11 13:02:29;;;;;;;;;;;11.50;79.00;;;;;;5060269;28;19932;-70
2023/12/11 13:05:04;;;;;;;;;;;11.40;79.00;;;;;;5061023;28;20038;-70
2023/12/11 13:07:37;;;;;;;;;;;11.40;79.00;;;;;;5044186;28;20294;-69
2023/12/11 13:10:10;;;;;;;;;;;11.40;79.00;;;;;;5062242;28;19936;-70
2023/12/11 13:12:47;;;;;;;;;;;11.40;78.50;;;;;;5061323;28;19971;-71
2023/12/11 13:15:20;;;;;;;;;;;11.40;78.40;;;;;;5062191;28;19932;-70
2023/12/11 13:17:55;;;;;;;;;;;11.40;78.20;;;;;;5058872;28;19932;-70
2023/12/11 13:20:28;;;;;;;;;;;11.40;78.70;;;;;;5061069;28;20303;-70
2023/12/11 13:23:02;;;;;;;;;;;11.40;78.20;;;;;;5062239;28;19935;-70
2023/12/11 13:25:35;;;;;;;;;;;11.40;78.00;;;;;;5050387;28;19983;-70
2023/12/11 13:28:08;;;;;;;;;;;11.40;78.20;;;;;;5060950;28;20020;-70
2023/12/11 13:30:41;;;;;;;;;;;11.50;78.00;;;;;;5061902;28;19933;-71
2023/12/11 13:33:15;;;;;;;;;;;11.40;78.00;;;;;;5061572;28;19928;-71
2023/12/11 13:35:50;;;;;;;;;;;11.40;77.70;;;;;;5060284;28;19925;-70
2023/12/11 13:38:23;;;;;;;;;;;11.30;77.80;;;;;;5061528;28;19925;-70
2023/12/11 13:40:56;;;;;;;;;;;11.30;77.60;;;;;;5061613;28;19935;-71
2023/12/11 13:43:30;;;;;;;;;;;11.30;77.70;;;;;;5059585;28;19931;-70
2023/12/11 13:46:03;;;;;;;;;;;11.30;77.30;;;;;;5062285;28;19939;-69
2023/12/11 13:48:37;;;;;;;;;;;11.30;77.40;;;;;;5061121;28;19974;-63
2023/12/11 13:51:09;;;;;;;;;;;11.20;77.50;;;;;;5060417;28;19928;-65
2023/12/11 13:53:42;;;;;;;;;;;11.30;77.70;;;;;;5060368;28;19929;-64
2023/12/11 13:56:15;;;;;;;;;;;11.20;78.00;;;;;;5061039;28;20449;-64
2023/12/11 13:58:49;;;;;;;;;;;11.20;78.30;;;;;;5060971;28;19933;-65
2023/12/11 14:01:23;;;;;;;;;;;11.10;78.40;;;;;;5049434;28;19975;-65
2023/12/11 14:03:57;;;;;;;;;;;11.00;78.60;;;;;;5056148;28;19939;-65
2023/12/11 14:06:30;;;;;;;;;;;11.00;78.60;;;;;;5057183;28;19932;-65
2023/12/11 14:08:57;;;;;;;;;;;11.00;78.80;;;;;;5060308;28;19924;-64
2023/12/11 14:11:37;;;;;;;;;;;11.00;78.80;;;;;;5059275;28;19925;-65
2023/12/11 14:14:10;;;;;;;;;;;10.90;78.70;;;;;;5060373;28;19958;-66
2023/12/11 14:16:43;;;;;;;;;;;10.90;79.20;;;;;;5061121;28;19951;-65
2023/12/11 14:19:18;;;;;;;;;;;10.90;79.50;;;;;;5061214;28;20004;-66
2023/12/11 14:21:52;;;;;;;;;;;10.90;79.20;;;;;;5060325;28;19935;-64
2023/12/11 14:24:25;;;;;;;;;;;10.90;79.50;;;;;;5056647;28;19933;-65
2023/12/11 14:26:58;;;;;;;;;;;10.80;79.80;;;;;;5060344;28;19936;-65
2023/12/11 14:29:38;;;;;;;;;;;10.80;79.60;;;;;;5059497;28;20387;-66
2023/12/11 14:32:11;;;;;;;;;;;10.80;79.70;;;;;;5060690;28;19974;-65
2023/12/11 14:34:43;;;;;;;;;;;10.80;79.60;;;;;;5058302;28;19935;-65
2023/12/11 14:37:17;;;;;;;;;;;10.80;79.50;;;;;;5058130;28;19929;-67
2023/12/11 14:39:52;;;;;;;;;;;10.80;79.10;;;;;;5043523;28;20443;-65
2023/12/11 14:42:27;;;;;;;;;;;10.80;78.60;;;;;;5057582;28;20570;-66
2023/12/11 14:45:00;;;;;;;;;;;10.70;78.80;;;;;;5060209;28;19928;-66
2023/12/11 14:47:33;;;;;;;;;;;10.80;78.50;;;;;;5060022;28;19932;-66
2023/12/11 14:50:08;;;;;;;;;;;10.70;78.50;;;;;;5060891;28;19956;-66
2023/12/11 14:52:41;;;;;;;;;;;10.70;78.50;;;;;;5059032;28;19932;-66
2023/12/11 14:55:14;;;;;;;;;;;10.70;78.40;;;;;;5059401;28;19963;-65
2023/12/11 14:57:47;;;;;;;;;;;10.70;78.30;;;;;;5060654;28;19935;-67
2023/12/11 15:00:20;;;;;;;;;;;10.70;78.40;;;;;;5060386;28;19990;-76
2023/12/11 15:02:53;;;;;;;;;;;10.70;78.50;;;;;;5057121;28;20013;-76
2023/12/11 15:05:28;;;;;;;;;;;10.70;78.70;;;;;;5060272;28;19935;-76
2023/12/11 15:08:00;;;;;;;;;;;10.70;78.40;;;;;;5059052;28;20290;-78
2023/12/11 15:10:33;;;;;;;;;;;10.70;78.40;;;;;;5059808;28;19925;-77
2023/12/11 15:13:07;;;;;;;;;;;10.60;78.60;;;;;;5060954;28;20468;-76
2023/12/11 15:15:39;;;;;;;;;;;10.60;78.50;;;;;;5059551;28;19924;-78